sensor_id;sensor_type;location;lat;lon;timestamp;pressure;altitude;pressure_sealevel;temperature;humidity
63006;BME280;53704;52.532;6.426;2022-12-18T00:01:30;102907.50;;;-4.68;100.00
63006;BME280;53704;52.532;6.426;2022-12-18T00:03:57;102906.63;;;-4.72;100.00
63006;BME280;53704;52.532;6.426;2022-12-18T00:06:24;102898.06;;;-4.91;100.00
63006;BME280;53704;52.532;6.426;2022-12-18T00:08:50;102905.13;;;-4.99;100.00
63006;BME280;53704;52.532;6.426;2022-12-18T00:11:21;102904.25;;;-4.98;100.00
63006;BME280;53704;52.532;6.426;2022-12-18T00:13:47;102904.81;;;-4.63;100.00
63006;BME280;53704;52.532;6.426;2022-12-18T00:16:18;102903.97;;;-4.65;100.00
63006;BME280;53704;52.532;6.426;2022-12-18T00:18:49;102898.56;;;-4.50;100.00
63006;BME280;53704;52.532;6.426;2022-12-18T00:21:15;102893.31;;;-4.53;100.00
63006;BME280;53704;52.532;6.426;2022-12-18T00:23:41;102887.47;;;-4.81;100.00
63006;BME280;53704;52.532;6.426;2022-12-18T00:26:11;102888.44;;;-4.90;100.00
63006;BME280;53704;52.532;6.426;2022-12-18T00:28:37;102887.53;;;-4.87;100.00
63006;BME280;53704;52.532;6.426;2022-12-18T00:31:05;102893.50;;;-4.72;100.00
63006;BME280;53704;52.532;6.426;2022-12-18T00:33:34;102890.09;;;-4.83;100.00
63006;BME280;53704;52.532;6.426;2022-12-18T00:36:08;102881.28;;;-4.76;100.00
63006;BME280;53704;52.532;6.426;2022-12-18T00:38:34;102876.00;;;-4.73;100.00
63006;BME280;53704;52.532;6.426;2022-12-18T00:41:04;102867.41;;;-4.90;100.00
63006;BME280;53704;52.532;6.426;2022-12-18T00:43:29;102861.38;;;-5.01;100.00
63006;BME280;53704;52.532;6.426;2022-12-18T00:45:55;102877.31;;;-5.21;100.00
63006;BME280;53704;52.532;6.426;2022-12-18T00:48:20;102877.31;;;-5.21;100.00
63006;BME280;53704;52.532;6.426;2022-12-18T00:50:48;102874.84;;;-5.48;100.00
63006;BME280;53704;52.532;6.426;2022-12-18T00:53:13;102884.44;;;-5.40;100.00
63006;BME280;53704;52.532;6.426;2022-12-18T00:55:39;102877.44;;;-5.43;100.00
63006;BME280;53704;52.532;6.426;2022-12-18T00:58:05;102874.66;;;-5.20;100.00
63006;BME280;53704;52.532;6.426;2022-12-18T01:00:30;102861.91;;;-5.71;100.00
63006;BME280;53704;52.532;6.426;2022-12-18T01:02:55;102862.56;;;-5.44;100.00
63006;BME280;53704;52.532;6.426;2022-12-18T01:05:21;102866.19;;;-5.62;100.00
63006;BME280;53704;52.532;6.426;2022-12-18T01:07:46;102877.41;;;-5.35;100.00
63006;BME280;53704;52.532;6.426;2022-12-18T01:10:12;102881.91;;;-5.57;100.00
63006;BME280;53704;52.532;6.426;2022-12-18T01:12:38;102881.91;;;-5.54;100.00
63006;BME280;53704;52.532;6.426;2022-12-18T01:15:06;102875.91;;;-5.73;100.00
63006;BME280;53704;52.532;6.426;2022-12-18T01:17:33;102875.81;;;-5.56;100.00
63006;BME280;53704;52.532;6.426;2022-12-18T01:19:58;102871.50;;;-5.74;100.00
63006;BME280;53704;52.532;6.426;2022-12-18T01:22:24;102883.63;;;-5.50;100.00
63006;BME280;53704;52.532;6.426;2022-12-18T01:24:49;102880.31;;;-5.85;100.00
63006;BME280;53704;52.532;6.426;2022-12-18T01:27:15;102884.00;;;-6.16;100.00
63006;BME280;53704;52.532;6.426;2022-12-18T01:29:40;102874.34;;;-6.10;100.00
63006;BME280;53704;52.532;6.426;2022-12-18T01:32:06;102875.22;;;-6.06;100.00
63006;BME280;53704;52.532;6.426;2022-12-18T01:34:31;102870.84;;;-6.09;100.00
63006;BME280;53704;52.532;6.426;2022-12-18T01:36:57;102855.00;;;-5.93;100.00
63006;BME280;53704;52.532;6.426;2022-12-18T01:39:23;102858.56;;;-5.97;100.00
63006;BME280;53704;52.532;6.426;2022-12-18T01:41:49;102854.19;;;-6.00;100.00
63006;BME280;53704;52.532;6.426;2022-12-18T01:50:17;102893.69;;;-6.35;100.00
63006;BME280;53704;52.532;6.426;2022-12-18T01:52:47;102903.34;;;-6.53;100.00
63006;BME280;53704;52.532;6.426;2022-12-18T01:55:15;102905.94;;;-6.55;100.00
63006;BME280;53704;52.532;6.426;2022-12-18T01:57:42;102898.97;;;-6.62;100.00
63006;BME280;53704;52.532;6.426;2022-12-18T02:00:14;102893.72;;;-6.60;100.00
63006;BME280;53704;52.532;6.426;2022-12-18T02:02:41;102898.06;;;-6.48;100.00
63006;BME280;53704;52.532;6.426;2022-12-18T02:05:09;102898.94;;;-6.52;100.00
63006;BME280;53704;52.532;6.426;2022-12-18T02:08:01;102887.63;;;-6.76;100.00
63006;BME280;53704;52.532;6.426;2022-12-18T02:10:54;102892.88;;;-6.76;100.00
63006;BME280;53704;52.532;6.426;2022-12-18T02:13:32;102902.44;;;-6.64;100.00
63006;BME280;53704;52.532;6.426;2022-12-18T02:16:36;102888.50;;;-6.73;100.00
63006;BME280;53704;52.532;6.426;2022-12-18T02:22:06;102885.03;;;-6.90;100.00
63006;BME280;53704;52.532;6.426;2022-12-18T02:27:45;102899.84;;;-7.24;100.00
63006;BME280;53704;52.532;6.426;2022-12-18T02:30:12;102899.84;;;-7.14;100.00
63006;BME280;53704;52.532;6.426;2022-12-18T02:32:40;102898.13;;;-6.88;100.00
63006;BME280;53704;52.532;6.426;2022-12-18T02:35:11;102908.59;;;-7.04;100.00
63006;BME280;53704;52.532;6.426;2022-12-18T02:37:39;102908.59;;;-6.98;100.00
63006;BME280;53704;52.532;6.426;2022-12-18T02:40:06;102903.34;;;-6.73;100.00
63006;BME280;53704;52.532;6.426;2022-12-18T02:42:33;102899.00;;;-7.16;100.00
63006;BME280;53704;52.532;6.426;2022-12-18T02:44:58;102905.09;;;-7.09;100.00
63006;BME280;53704;52.532;6.426;2022-12-18T02:47:28;102898.13;;;-7.29;100.00
63006;BME280;53704;52.532;6.426;2022-12-18T02:52:41;102902.47;;;-7.28;100.00
63006;BME280;53704;52.532;6.426;2022-12-18T02:58:14;102900.72;;;-7.30;100.00
63006;BME280;53704;52.532;6.426;2022-12-18T03:00:50;102893.72;;;-7.47;100.00
63006;BME280;53704;52.532;6.426;2022-12-18T03:03:29;102898.13;;;-7.27;100.00
63006;BME280;53704;52.532;6.426;2022-12-18T03:06:18;102891.09;;;-7.51;100.00
63006;BME280;53704;52.532;6.426;2022-12-18T03:08:51;102883.28;;;-7.31;100.00
63006;BME280;53704;52.532;6.426;2022-12-18T03:11:19;102885.88;;;-7.37;100.00
63006;BME280;53704;52.532;6.426;2022-12-18T03:14:06;102878.00;;;-7.51;100.00
63006;BME280;53704;52.532;6.426;2022-12-18T03:16:33;102869.25;;;-7.64;100.00
63006;BME280;53704;52.532;6.426;2022-12-18T03:19:05;102875.38;;;-7.54;100.00
63006;BME280;53704;52.532;6.426;2022-12-18T03:21:49;102862.31;;;-7.60;100.00
63006;BME280;53704;52.532;6.426;2022-12-18T03:24:17;102868.38;;;-7.68;100.00
63006;BME280;53704;52.532;6.426;2022-12-18T03:26:46;102864.03;;;-7.63;100.00
63006;BME280;53704;52.532;6.426;2022-12-18T03:29:20;102861.38;;;-7.73;100.00
63006;BME280;53704;52.532;6.426;2022-12-18T03:31:51;102859.66;;;-7.73;100.00
63006;BME280;53704;52.532;6.426;2022-12-18T03:34:29;102859.69;;;-7.45;100.00
63006;BME280;53704;52.532;6.426;2022-12-18T03:36:56;102859.66;;;-7.76;100.00
63006;BME280;53704;52.532;6.426;2022-12-18T03:39:21;102857.03;;;-7.79;100.00
63006;BME280;53704;52.532;6.426;2022-12-18T03:41:52;102854.44;;;-7.77;100.00
63006;BME280;53704;52.532;6.426;2022-12-18T03:49:24;102860.50;;;-7.80;100.00
63006;BME280;53704;52.532;6.426;2022-12-18T03:52:01;102865.75;;;-7.78;100.00
63006;BME280;53704;52.532;6.426;2022-12-18T03:54:29;102858.78;;;-7.84;100.00
63006;BME280;53704;52.532;6.426;2022-12-18T03:57:13;102863.94;;;-8.04;100.00
63006;BME280;53704;52.532;6.426;2022-12-18T03:59:40;102855.19;;;-8.11;100.00
63006;BME280;53704;52.532;6.426;2022-12-18T04:02:07;102862.16;;;-8.05;100.00
63006;BME280;53704;52.532;6.426;2022-12-18T04:04:35;102862.16;;;-8.10;100.00
63006;BME280;53704;52.532;6.426;2022-12-18T04:07:04;102849.13;;;-7.96;100.00
63006;BME280;53704;52.532;6.426;2022-12-18T04:09:30;102856.91;;;-8.10;100.00
63006;BME280;53704;52.532;6.426;2022-12-18T04:11:57;102848.25;;;-8.06;100.00
63006;BME280;53704;52.532;6.426;2022-12-18T04:14:22;102853.50;;;-7.98;100.00
63006;BME280;53704;52.532;6.426;2022-12-18T04:16:48;102850.91;;;-7.93;100.00
63006;BME280;53704;52.532;6.426;2022-12-18T04:19:13;102849.06;;;-8.25;100.00
63006;BME280;53704;52.532;6.426;2022-12-18T04:21:38;102849.84;;;-8.36;100.00
63006;BME280;53704;52.532;6.426;2022-12-18T04:24:04;102840.38;;;-8.09;100.00
63006;BME280;53704;52.532;6.426;2022-12-18T04:26:30;102849.13;;;-8.01;100.00
63006;BME280;53704;52.532;6.426;2022-12-18T04:28:55;102840.47;;;-7.86;100.00
63006;BME280;53704;52.532;6.426;2022-12-18T04:31:21;102842.16;;;-7.95;100.00
63006;BME280;53704;52.532;6.426;2022-12-18T04:33:46;102843.00;;;-8.07;100.00
63006;BME280;53704;52.532;6.426;2022-12-18T04:36:12;102830.88;;;-7.80;100.00
63006;BME280;53704;52.532;6.426;2022-12-18T04:38:37;102838.59;;;-8.24;100.00
63006;BME280;53704;52.532;6.426;2022-12-18T04:41:03;102844.63;;;-8.39;100.00
63006;BME280;53704;52.532;6.426;2022-12-18T04:43:28;102840.31;;;-8.26;100.00
63006;BME280;53704;52.532;6.426;2022-12-18T04:46:01;102837.72;;;-8.20;100.00
63006;BME280;53704;52.532;6.426;2022-12-18T04:48:27;102835.09;;;-8.24;100.00
63006;BME280;53704;52.532;6.426;2022-12-18T04:50:52;102830.69;;;-8.38;100.00
63006;BME280;53704;52.532;6.426;2022-12-18T04:53:20;102822.94;;;-8.13;100.00
63006;BME280;53704;52.532;6.426;2022-12-18T04:55:46;102821.19;;;-8.20;100.00
63006;BME280;53704;52.532;6.426;2022-12-18T04:58:11;102830.75;;;-8.16;100.00
63006;BME280;53704;52.532;6.426;2022-12-18T05:00:36;102837.72;;;-8.21;100.00
63006;BME280;53704;52.532;6.426;2022-12-18T05:03:02;102835.94;;;-8.44;100.00
63006;BME280;53704;52.532;6.426;2022-12-18T05:05:28;102837.66;;;-8.32;100.00
63006;BME280;53704;52.532;6.426;2022-12-18T05:07:53;102845.47;;;-8.37;100.00
63006;BME280;53704;52.532;6.426;2022-12-18T05:10:18;102852.53;;;-8.20;100.00
63006;BME280;53704;52.532;6.426;2022-12-18T05:12:44;102852.63;;;-8.05;100.00
63006;BME280;53704;52.532;6.426;2022-12-18T05:15:31;102856.03;;;-8.16;100.00
63006;BME280;53704;52.532;6.426;2022-12-18T05:17:58;102849.88;;;-8.32;100.00
63006;BME280;53704;52.532;6.426;2022-12-18T05:20:24;102846.34;;;-8.51;100.00
63006;BME280;53704;52.532;6.426;2022-12-18T05:22:50;102849.84;;;-8.40;100.00
63006;BME280;53704;52.532;6.426;2022-12-18T05:25:16;102847.22;;;-8.40;100.00
63006;BME280;53704;52.532;6.426;2022-12-18T05:27:42;102861.94;;;-8.61;100.00
63006;BME280;53704;52.532;6.426;2022-12-18T05:30:08;102855.94;;;-8.37;100.00
63006;BME280;53704;52.532;6.426;2022-12-18T05:32:34;102853.34;;;-8.33;100.00
63006;BME280;53704;52.532;6.426;2022-12-18T05:35:00;102860.28;;;-8.43;100.00
63006;BME280;53704;52.532;6.426;2022-12-18T05:37:25;102862.88;;;-8.42;100.00
63006;BME280;53704;52.532;6.426;2022-12-18T05:39:50;102862.91;;;-8.45;100.00
63006;BME280;53704;52.532;6.426;2022-12-18T05:42:16;102863.75;;;-8.50;100.00
63006;BME280;53704;52.532;6.426;2022-12-18T05:44:43;102862.00;;;-8.51;100.00
63006;BME280;53704;52.532;6.426;2022-12-18T05:47:08;102870.75;;;-8.45;100.00
63006;BME280;53704;52.532;6.426;2022-12-18T05:49:33;102880.25;;;-8.56;100.00
63006;BME280;53704;52.532;6.426;2022-12-18T05:51:59;102895.91;;;-8.59;100.00
63006;BME280;53704;52.532;6.426;2022-12-18T05:54:27;102891.53;;;-8.62;100.00
63006;BME280;53704;52.532;6.426;2022-12-18T05:56:52;102900.28;;;-8.57;100.00
63006;BME280;53704;52.532;6.426;2022-12-18T05:59:18;102897.47;;;-8.83;100.00
63006;BME280;53704;52.532;6.426;2022-12-18T06:01:43;102894.03;;;-8.82;100.00
63006;BME280;53704;52.532;6.426;2022-12-18T06:04:09;102890.44;;;-8.98;100.00
63006;BME280;53704;52.532;6.426;2022-12-18T06:06:34;102891.38;;;-8.88;100.00
63006;BME280;53704;52.532;6.426;2022-12-18T06:09:00;102888.03;;;-8.67;100.00
63006;BME280;53704;52.532;6.426;2022-12-18T06:11:26;102896.59;;;-8.85;100.00
63006;BME280;53704;52.532;6.426;2022-12-18T06:13:56;102900.13;;;-8.80;100.00
63006;BME280;53704;52.532;6.426;2022-12-18T06:16:21;102900.16;;;-8.75;100.00
63006;BME280;53704;52.532;6.426;2022-12-18T06:18:47;102900.97;;;-8.79;100.00
63006;BME280;53704;52.532;6.426;2022-12-18T06:21:12;102899.28;;;-8.77;100.00
63006;BME280;53704;52.532;6.426;2022-12-18T06:23:38;102888.81;;;-8.79;100.00
63006;BME280;53704;52.532;6.426;2022-12-18T06:26:05;102881.78;;;-8.86;100.00
63006;BME280;53704;52.532;6.426;2022-12-18T06:28:31;102888.69;;;-8.94;100.00
63006;BME280;53704;52.532;6.426;2022-12-18T06:30:57;102883.53;;;-8.88;100.00
63006;BME280;53704;52.532;6.426;2022-12-18T06:33:26;102879.09;;;-8.97;100.00
63006;BME280;53704;52.532;6.426;2022-12-18T06:35:52;102873.06;;;-8.93;100.00
63006;BME280;53704;52.532;6.426;2022-12-18T06:38:17;102864.41;;;-8.84;100.00
63006;BME280;53704;52.532;6.426;2022-12-18T06:40:43;102860.09;;;-8.80;100.00
63006;BME280;53704;52.532;6.426;2022-12-18T06:43:08;102853.09;;;-8.83;100.00
63006;BME280;53704;52.532;6.426;2022-12-18T06:45:33;102848.63;;;-9.02;100.00
63006;BME280;53704;52.532;6.426;2022-12-18T06:47:59;102853.97;;;-8.87;100.00
63006;BME280;53704;52.532;6.426;2022-12-18T06:50:24;102851.97;;;-9.19;100.00
63006;BME280;53704;52.532;6.426;2022-12-18T06:52:50;102845.19;;;-8.95;100.00
63006;BME280;53704;52.532;6.426;2022-12-18T06:55:15;102843.50;;;-8.92;100.00
63006;BME280;53704;52.532;6.426;2022-12-18T06:57:41;102845.94;;;-9.12;100.00
63006;BME280;53704;52.532;6.426;2022-12-18T07:00:07;102845.06;;;-9.14;100.00
63006;BME280;53704;52.532;6.426;2022-12-18T07:02:33;102843.34;;;-9.10;100.00
63006;BME280;53704;52.532;6.426;2022-12-18T07:04:58;102844.22;;;-9.08;100.00
63006;BME280;53704;52.532;6.426;2022-12-18T07:07:24;102833.78;;;-9.08;100.00
63006;BME280;53704;52.532;6.426;2022-12-18T07:09:50;102838.19;;;-9.02;100.00
63006;BME280;53704;52.532;6.426;2022-12-18T07:12:16;102838.25;;;-8.93;100.00
63006;BME280;53704;52.532;6.426;2022-12-18T07:14:42;102845.91;;;-9.15;100.00
63006;BME280;53704;52.532;6.426;2022-12-18T07:17:07;102827.78;;;-8.98;100.00
63006;BME280;53704;52.532;6.426;2022-12-18T07:19:33;102825.19;;;-8.98;100.00
63006;BME280;53704;52.532;6.426;2022-12-18T07:21:58;102826.00;;;-9.03;100.00
63006;BME280;53704;52.532;6.426;2022-12-18T07:24:24;102825.97;;;-9.06;100.00
63006;BME280;53704;52.532;6.426;2022-12-18T07:26:49;102826.94;;;-8.92;100.00
63006;BME280;53704;52.532;6.426;2022-12-18T07:29:15;102836.53;;;-8.88;100.00
63006;BME280;53704;52.532;6.426;2022-12-18T07:31:40;102834.84;;;-8.81;100.00
63006;BME280;53704;52.532;6.426;2022-12-18T07:34:10;102841.78;;;-8.85;100.00
63006;BME280;53704;52.532;6.426;2022-12-18T07:36:36;102844.31;;;-8.97;100.00
63006;BME280;53704;52.532;6.426;2022-12-18T07:39:02;102845.22;;;-8.91;100.00
63006;BME280;53704;52.532;6.426;2022-12-18T07:41:27;102841.69;;;-9.00;100.00
63006;BME280;53704;52.532;6.426;2022-12-18T07:43:52;102839.16;;;-8.86;100.00
63006;BME280;53704;52.532;6.426;2022-12-18T07:46:18;102840.91;;;-8.90;100.00
63006;BME280;53704;52.532;6.426;2022-12-18T07:48:44;102838.25;;;-8.96;100.00
63006;BME280;53704;52.532;6.426;2022-12-18T07:51:10;102832.38;;;-8.58;100.00
63006;BME280;53704;52.532;6.426;2022-12-18T07:53:36;102838.31;;;-8.81;100.00
63006;BME280;53704;52.532;6.426;2022-12-18T07:56:07;102833.22;;;-8.59;100.00
63006;BME280;53704;52.532;6.426;2022-12-18T07:58:34;102824.47;;;-8.72;100.00
63006;BME280;53704;52.532;6.426;2022-12-18T08:01:10;102831.38;;;-8.80;100.00
63006;BME280;53704;52.532;6.426;2022-12-18T08:03:37;102825.25;;;-8.84;100.00
63006;BME280;53704;52.532;6.426;2022-12-18T08:06:05;102830.47;;;-8.88;100.00
63006;BME280;53704;52.532;6.426;2022-12-18T08:08:32;102815.75;;;-8.74;100.00
63006;BME280;53704;52.532;6.426;2022-12-18T08:10:58;102814.06;;;-8.63;100.00
63006;BME280;53704;52.532;6.426;2022-12-18T08:13:25;102823.59;;;-8.73;100.00
63006;BME280;53704;52.532;6.426;2022-12-18T08:16:01;102823.63;;;-8.66;100.00
63006;BME280;53704;52.532;6.426;2022-12-18T08:18:28;102816.75;;;-8.52;100.00
63006;BME280;53704;52.532;6.426;2022-12-18T08:20:54;102812.34;;;-8.59;100.00
63006;BME280;53704;52.532;6.426;2022-12-18T08:23:20;102804.50;;;-8.59;100.00
63006;BME280;53704;52.532;6.426;2022-12-18T08:25:46;102801.97;;;-8.44;100.00
63006;BME280;53704;52.532;6.426;2022-12-18T08:28:11;102794.97;;;-8.39;100.00
63006;BME280;53704;52.532;6.426;2022-12-18T08:30:36;102785.38;;;-8.40;100.00
63006;BME280;53704;52.532;6.426;2022-12-18T08:33:02;102787.19;;;-8.23;100.00
63006;BME280;53704;52.532;6.426;2022-12-18T08:35:27;102798.53;;;-8.18;100.00
63006;BME280;53704;52.532;6.426;2022-12-18T08:37:53;102795.94;;;-8.16;100.00
63006;BME280;53704;52.532;6.426;2022-12-18T08:40:18;102801.16;;;-8.16;100.00
63006;BME280;53704;52.532;6.426;2022-12-18T08:42:44;102806.38;;;-8.20;100.00
63006;BME280;53704;52.532;6.426;2022-12-18T08:45:28;102796.78;;;-8.19;100.00
63006;BME280;53704;52.532;6.426;2022-12-18T08:47:53;102797.69;;;-8.12;100.00
63006;BME280;53704;52.532;6.426;2022-12-18T08:50:19;102791.59;;;-8.10;100.00
63006;BME280;53704;52.532;6.426;2022-12-18T08:52:45;102792.50;;;-8.06;100.00
63006;BME280;53704;52.532;6.426;2022-12-18T08:55:11;102795.09;;;-8.05;100.00
63006;BME280;53704;52.532;6.426;2022-12-18T08:57:36;102790.75;;;-7.95;100.00
63006;BME280;53704;52.532;6.426;2022-12-18T09:00:03;102793.38;;;-7.75;100.00
63006;BME280;53704;52.532;6.426;2022-12-18T09:02:29;102785.53;;;-7.75;100.00
63006;BME280;53704;52.532;6.426;2022-12-18T09:04:54;102789.06;;;-7.74;100.00
63006;BME280;53704;52.532;6.426;2022-12-18T09:07:19;102774.25;;;-7.65;100.00
63006;BME280;53704;52.532;6.426;2022-12-18T09:09:45;102776.84;;;-7.60;100.00
63006;BME280;53704;52.532;6.426;2022-12-18T09:12:11;102782.97;;;-7.47;100.00
63006;BME280;53704;52.532;6.426;2022-12-18T09:14:37;102782.09;;;-7.43;100.00
63006;BME280;53704;52.532;6.426;2022-12-18T09:17:02;102792.56;;;-7.44;100.00
63006;BME280;53704;52.532;6.426;2022-12-18T09:19:27;102799.53;;;-7.37;100.00
63006;BME280;53704;52.532;6.426;2022-12-18T09:21:53;102798.66;;;-7.25;100.00
63006;BME280;53704;52.532;6.426;2022-12-18T09:24:18;102792.53;;;-7.17;100.00
63006;BME280;53704;52.532;6.426;2022-12-18T09:26:44;102782.91;;;-7.04;100.00
63006;BME280;53704;52.532;6.426;2022-12-18T09:29:09;102782.03;;;-6.95;100.00
63006;BME280;53704;52.532;6.426;2022-12-18T09:31:35;102774.16;;;-6.91;100.00
63006;BME280;53704;52.532;6.426;2022-12-18T09:34:01;102770.63;;;-6.76;100.00
63006;BME280;53704;52.532;6.426;2022-12-18T09:36:26;102767.13;;;-6.73;100.00
63006;BME280;53704;52.532;6.426;2022-12-18T09:38:52;102771.44;;;-6.60;100.00
63006;BME280;53704;52.532;6.426;2022-12-18T09:44:33;102776.66;;;-6.50;100.00
63006;BME280;53704;52.532;6.426;2022-12-18T09:47:07;102773.16;;;-6.48;100.00
63006;BME280;53704;52.532;6.426;2022-12-18T09:49:40;102784.47;;;-6.37;100.00
63006;BME280;53704;52.532;6.426;2022-12-18T09:52:42;102791.38;;;-6.28;100.00
63006;BME280;53704;52.532;6.426;2022-12-18T09:57:47;102795.69;;;-6.07;100.00
63006;BME280;53704;52.532;6.426;2022-12-18T10:00:24;102786.97;;;-6.12;100.00
63006;BME280;53704;52.532;6.426;2022-12-18T10:02:51;102776.41;;;-6.04;100.00
63006;BME280;53704;52.532;6.426;2022-12-18T10:06:23;102766.81;;;-6.02;100.00
63006;BME280;53704;52.532;6.426;2022-12-18T10:27:16;102686.88;;;-5.59;100.00
63006;BME280;53704;52.532;6.426;2022-12-18T10:29:45;102678.03;;;-5.51;100.00
63006;BME280;53704;52.532;6.426;2022-12-18T10:32:18;102676.19;;;-5.44;100.00
63006;BME280;53704;52.532;6.426;2022-12-18T10:34:47;102667.38;;;-5.35;100.00
63006;BME280;53704;52.532;6.426;2022-12-18T10:37:17;102673.41;;;-5.27;100.00
63006;BME280;53704;52.532;6.426;2022-12-18T10:39:43;102672.56;;;-5.29;100.00
63006;BME280;53704;52.532;6.426;2022-12-18T10:42:17;102666.28;;;-5.17;100.00
63006;BME280;53704;52.532;6.426;2022-12-18T10:44:43;102664.47;;;-5.07;100.00
63006;BME280;53704;52.532;6.426;2022-12-18T10:47:14;102665.22;;;-4.99;100.00
63006;BME280;53704;52.532;6.426;2022-12-18T10:49:47;102667.81;;;-4.95;100.00
63006;BME280;53704;52.532;6.426;2022-12-18T10:54:40;102656.28;;;-4.84;100.00
63006;BME280;53704;52.532;6.426;2022-12-18T10:57:28;102646.50;;;-4.75;100.00
63006;BME280;53704;52.532;6.426;2022-12-18T10:59:56;102649.06;;;-4.68;100.00
63006;BME280;53704;52.532;6.426;2022-12-18T11:02:34;102644.66;;;-4.66;100.00
63006;BME280;53704;52.532;6.426;2022-12-18T11:05:00;102648.94;;;-4.59;100.00
63006;BME280;53704;52.532;6.426;2022-12-18T11:07:49;102654.91;;;-4.48;100.00
63006;BME280;53704;52.532;6.426;2022-12-18T11:10:20;102651.31;;;-4.41;100.00
63006;BME280;53704;52.532;6.426;2022-12-18T11:12:46;102642.47;;;-4.37;100.00
63006;BME280;53704;52.532;6.426;2022-12-18T11:15:30;102652.06;;;-4.32;100.00
63006;BME280;53704;52.532;6.426;2022-12-18T11:17:55;102641.47;;;-4.28;100.00
63006;BME280;53704;52.532;6.426;2022-12-18T11:20:33;102634.31;;;-4.18;100.00
63006;BME280;53704;52.532;6.426;2022-12-18T11:23:04;102642.22;;;-4.20;100.00
63006;BME280;53704;52.532;6.426;2022-12-18T11:25:32;102637.69;;;-4.11;100.00
63006;BME280;53704;52.532;6.426;2022-12-18T11:28:00;102642.03;;;-4.07;100.00
63006;BME280;53704;52.532;6.426;2022-12-18T11:30:34;102643.78;;;-4.08;100.00
63006;BME280;53704;52.532;6.426;2022-12-18T11:33:19;102645.41;;;-4.01;100.00
63006;BME280;53704;52.532;6.426;2022-12-18T11:35:52;102645.38;;;-3.97;100.00
63006;BME280;53704;52.532;6.426;2022-12-18T11:38:45;102639.09;;;-3.89;100.00
63006;BME280;53704;52.532;6.426;2022-12-18T11:41:32;102623.00;;;-3.72;100.00
63006;BME280;53704;52.532;6.426;2022-12-18T11:44:25;102624.06;;;-3.82;100.00
63006;BME280;53704;52.532;6.426;2022-12-18T11:46:58;102629.34;;;-3.84;100.00
63006;BME280;53704;52.532;6.426;2022-12-18T11:49:28;102624.72;;;-3.69;100.00
63006;BME280;53704;52.532;6.426;2022-12-18T11:54:29;102620.31;;;-3.69;100.00
63006;BME280;53704;52.532;6.426;2022-12-18T11:57:14;102608.03;;;-3.68;100.00
63006;BME280;53704;52.532;6.426;2022-12-18T12:00:01;102606.13;;;-3.60;100.00
63006;BME280;53704;52.532;6.426;2022-12-18T12:05:20;102600.72;;;-3.52;100.00
63006;BME280;53704;52.532;6.426;2022-12-18T12:08:43;102602.19;;;-3.39;100.00
63006;BME280;53704;52.532;6.426;2022-12-18T12:11:56;102591.03;;;-3.52;100.00
63006;BME280;53704;52.532;6.426;2022-12-18T12:27:58;102538.78;;;-3.28;100.00
63006;BME280;53704;52.532;6.426;2022-12-18T12:38:47;102531.59;;;-3.21;100.00
63006;BME280;53704;52.532;6.426;2022-12-18T12:41:19;102525.34;;;-3.16;100.00
63006;BME280;53704;52.532;6.426;2022-12-18T12:44:08;102522.69;;;-3.14;100.00
63006;BME280;53704;52.532;6.426;2022-12-18T12:46:39;102512.19;;;-3.17;100.00
63006;BME280;53704;52.532;6.426;2022-12-18T12:49:15;102512.00;;;-3.08;100.00
63006;BME280;53704;52.532;6.426;2022-12-18T12:51:43;102515.50;;;-3.07;100.00
63006;BME280;53704;52.532;6.426;2022-12-18T12:54:23;102514.41;;;-2.97;100.00
63006;BME280;53704;52.532;6.426;2022-12-18T13:04:58;102490.84;;;-3.05;100.00
63006;BME280;53704;52.532;6.426;2022-12-18T13:07:42;102488.72;;;-2.89;100.00
63006;BME280;53704;52.532;6.426;2022-12-18T13:13:06;102486.00;;;-2.84;100.00
63006;BME280;53704;52.532;6.426;2022-12-18T13:15:42;102479.72;;;-2.80;100.00
63006;BME280;53704;52.532;6.426;2022-12-18T13:20:39;102489.63;;;-2.90;100.00
63006;BME280;53704;52.532;6.426;2022-12-18T13:25:57;102470.22;;;-2.86;100.00
63006;BME280;53704;52.532;6.426;2022-12-18T13:30:59;102474.38;;;-2.77;100.00
63006;BME280;53704;52.532;6.426;2022-12-18T13:36:30;102470.84;;;-2.76;100.00
63006;BME280;53704;52.532;6.426;2022-12-18T13:41:43;102448.75;;;-2.72;100.00
63006;BME280;53704;52.532;6.426;2022-12-18T13:44:22;102440.72;;;-2.67;100.00
63006;BME280;53704;52.532;6.426;2022-12-18T13:46:50;102432.97;;;-2.74;100.00
63006;BME280;53704;52.532;6.426;2022-12-18T13:49:20;102428.44;;;-2.67;100.00
63006;BME280;53704;52.532;6.426;2022-12-18T13:51:48;102433.56;;;-2.61;100.00
63006;BME280;53704;52.532;6.426;2022-12-18T13:56:52;102433.88;;;-2.73;100.00
63006;BME280;53704;52.532;6.426;2022-12-18T13:59:25;102426.69;;;-2.68;100.00
63006;BME280;53704;52.532;6.426;2022-12-18T14:04:44;102416.88;;;-2.63;100.00
63006;BME280;53704;52.532;6.426;2022-12-18T14:09:41;102418.88;;;-2.71;100.00
63006;BME280;53704;52.532;6.426;2022-12-18T14:12:35;102416.06;;;-2.65;100.00
63006;BME280;53704;52.532;6.426;2022-12-18T14:17:47;102421.19;;;-2.59;100.00
63006;BME280;53704;52.532;6.426;2022-12-18T14:20:17;102425.38;;;-2.51;100.00
63006;BME280;53704;52.532;6.426;2022-12-18T14:22:44;102426.28;;;-2.51;100.00
63006;BME280;53704;52.532;6.426;2022-12-18T14:28:31;102417.22;;;-2.42;100.00
63006;BME280;53704;52.532;6.426;2022-12-18T14:30:37;102414.75;;;-2.48;100.00
63006;BME280;53704;52.532;6.426;2022-12-18T14:33:09;102415.59;;;-2.46;100.00
63006;BME280;53704;52.532;6.426;2022-12-18T14:35:38;102413.09;;;-2.51;100.00
63006;BME280;53704;52.532;6.426;2022-12-18T14:38:30;102416.66;;;-2.21;100.00
63006;BME280;53704;52.532;6.426;2022-12-18T14:43:25;102401.41;;;-2.42;100.00
63006;BME280;53704;52.532;6.426;2022-12-18T14:45:51;102396.38;;;-2.51;100.00
63006;BME280;53704;52.532;6.426;2022-12-18T14:53:40;102375.56;;;-2.61;100.00
63006;BME280;53704;52.532;6.426;2022-12-18T14:56:17;102368.50;;;-2.60;100.00